sensor_id;sensor_type;location;lat;lon;timestamp;P1;durP1;ratioP1;P2;durP2;ratioP2
55190;SDS011;41070;50.360;18.742;2023-08-12T00:02:58;6.70;;;5.00;;
55190;SDS011;41070;50.360;18.742;2023-08-12T00:05:41;6.10;;;4.90;;
55190;SDS011;41070;50.360;18.742;2023-08-12T00:08:17;7.60;;;4.50;;
55190;SDS011;41070;50.360;18.742;2023-08-12T00:11:04;5.40;;;4.40;;
55190;SDS011;41070;50.360;18.742;2023-08-12T00:13:31;7.00;;;4.60;;
55190;SDS011;41070;50.360;18.742;2023-08-12T00:16:42;6.00;;;4.50;;
55190;SDS011;41070;50.360;18.742;2023-08-12T00:19:31;5.10;;;4.10;;
55190;SDS011;41070;50.360;18.742;2023-08-12T00:22:09;7.70;;;5.70;;
55190;SDS011;41070;50.360;18.742;2023-08-12T00:25:16;6.90;;;5.40;;
55190;SDS011;41070;50.360;18.742;2023-08-12T00:27:47;7.30;;;4.50;;
55190;SDS011;41070;50.360;18.742;2023-08-12T00:30:15;6.20;;;4.60;;
55190;SDS011;41070;50.360;18.742;2023-08-12T00:32:45;4.70;;;4.30;;
55190;SDS011;41070;50.360;18.742;2023-08-12T00:35:13;5.60;;;4.60;;
55190;SDS011;41070;50.360;18.742;2023-08-12T00:37:42;5.60;;;4.90;;
55190;SDS011;41070;50.360;18.742;2023-08-12T00:40:18;5.30;;;4.80;;
55190;SDS011;41070;50.360;18.742;2023-08-12T00:42:48;4.90;;;4.20;;
55190;SDS011;41070;50.360;18.742;2023-08-12T00:45:27;5.50;;;4.70;;
55190;SDS011;41070;50.360;18.742;2023-08-12T00:47:55;4.80;;;4.20;;
55190;SDS011;41070;50.360;18.742;2023-08-12T00:50:57;7.20;;;5.20;;
55190;SDS011;41070;50.360;18.742;2023-08-12T00:53:25;6.00;;;4.40;;
55190;SDS011;41070;50.360;18.742;2023-08-12T00:56:13;7.30;;;5.20;;
55190;SDS011;41070;50.360;18.742;2023-08-12T00:58:44;6.80;;;4.90;;
55190;SDS011;41070;50.360;18.742;2023-08-12T01:01:13;7.30;;;5.30;;
55190;SDS011;41070;50.360;18.742;2023-08-12T01:03:55;8.60;;;4.70;;
55190;SDS011;41070;50.360;18.742;2023-08-12T01:06:48;6.00;;;5.40;;
55190;SDS011;41070;50.360;18.742;2023-08-12T01:09:24;8.80;;;5.90;;
55190;SDS011;41070;50.360;18.742;2023-08-12T01:11:55;7.20;;;5.40;;
55190;SDS011;41070;50.360;18.742;2023-08-12T01:17:14;7.40;;;5.30;;
55190;SDS011;41070;50.360;18.742;2023-08-12T01:20:10;7.40;;;5.20;;
55190;SDS011;41070;50.360;18.742;2023-08-12T01:22:40;5.80;;;4.90;;
55190;SDS011;41070;50.360;18.742;2023-08-12T01:25:31;8.30;;;5.40;;
55190;SDS011;41070;50.360;18.742;2023-08-12T01:27:58;7.10;;;4.80;;
55190;SDS011;41070;50.360;18.742;2023-08-12T01:30:25;5.60;;;4.90;;
55190;SDS011;41070;50.360;18.742;2023-08-12T01:33:15;9.60;;;5.50;;
55190;SDS011;41070;50.360;18.742;2023-08-12T01:36:17;6.20;;;5.00;;
55190;SDS011;41070;50.360;18.742;2023-08-12T01:38:59;7.00;;;4.60;;
55190;SDS011;41070;50.360;18.742;2023-08-12T01:41:30;5.80;;;4.60;;
55190;SDS011;41070;50.360;18.742;2023-08-12T01:44:16;6.00;;;4.50;;
55190;SDS011;41070;50.360;18.742;2023-08-12T01:46:52;5.70;;;3.90;;
55190;SDS011;41070;50.360;18.742;2023-08-12T01:49:19;6.00;;;4.60;;
55190;SDS011;41070;50.360;18.742;2023-08-12T01:51:49;8.20;;;4.70;;
55190;SDS011;41070;50.360;18.742;2023-08-12T01:54:16;8.80;;;4.80;;
55190;SDS011;41070;50.360;18.742;2023-08-12T01:57:03;8.90;;;4.90;;
55190;SDS011;41070;50.360;18.742;2023-08-12T01:59:51;8.40;;;5.30;;
55190;SDS011;41070;50.360;18.742;2023-08-12T02:05:08;6.40;;;4.20;;
55190;SDS011;41070;50.360;18.742;2023-08-12T02:07:36;5.00;;;4.20;;
55190;SDS011;41070;50.360;18.742;2023-08-12T02:10:04;13.20;;;7.00;;
55190;SDS011;41070;50.360;18.742;2023-08-12T02:12:32;9.90;;;6.00;;
55190;SDS011;41070;50.360;18.742;2023-08-12T02:15:01;6.40;;;4.60;;
55190;SDS011;41070;50.360;18.742;2023-08-12T02:17:28;7.20;;;4.40;;
55190;SDS011;41070;50.360;18.742;2023-08-12T02:20:00;5.20;;;4.40;;
55190;SDS011;41070;50.360;18.742;2023-08-12T02:22:37;5.30;;;4.20;;
55190;SDS011;41070;50.360;18.742;2023-08-12T02:25:06;7.00;;;4.60;;
55190;SDS011;41070;50.360;18.742;2023-08-12T02:27:33;7.80;;;4.50;;
55190;SDS011;41070;50.360;18.742;2023-08-12T02:30:16;8.50;;;4.50;;
55190;SDS011;41070;50.360;18.742;2023-08-12T02:32:42;9.90;;;5.60;;
55190;SDS011;41070;50.360;18.742;2023-08-12T02:35:30;6.30;;;4.50;;
55190;SDS011;41070;50.360;18.742;2023-08-12T02:38:01;7.00;;;4.50;;
55190;SDS011;41070;50.360;18.742;2023-08-12T02:40:30;7.50;;;4.30;;
55190;SDS011;41070;50.360;18.742;2023-08-12T02:45:23;10.20;;;6.10;;
55190;SDS011;41070;50.360;18.742;2023-08-12T02:48:10;10.80;;;5.80;;
55190;SDS011;41070;50.360;18.742;2023-08-12T02:50:37;12.20;;;5.90;;
55190;SDS011;41070;50.360;18.742;2023-08-12T02:53:25;8.60;;;5.30;;
55190;SDS011;41070;50.360;18.742;2023-08-12T02:58:42;7.00;;;4.50;;
55190;SDS011;41070;50.360;18.742;2023-08-12T03:01:18;6.90;;;5.10;;
55190;SDS011;41070;50.360;18.742;2023-08-12T03:03:45;6.20;;;4.60;;
55190;SDS011;41070;50.360;18.742;2023-08-12T03:06:28;7.20;;;4.50;;
55190;SDS011;41070;50.360;18.742;2023-08-12T03:09:15;6.90;;;4.50;;
55190;SDS011;41070;50.360;18.742;2023-08-12T03:11:44;6.70;;;4.60;;
55190;SDS011;41070;50.360;18.742;2023-08-12T03:14:21;7.80;;;4.80;;
55190;SDS011;41070;50.360;18.742;2023-08-12T03:16:53;7.90;;;5.80;;
55190;SDS011;41070;50.360;18.742;2023-08-12T03:19:33;6.50;;;5.00;;
55190;SDS011;41070;50.360;18.742;2023-08-12T03:22:06;7.80;;;5.10;;
55190;SDS011;41070;50.360;18.742;2023-08-12T03:24:33;5.40;;;4.40;;
55190;SDS011;41070;50.360;18.742;2023-08-12T03:27:20;5.90;;;4.50;;
55190;SDS011;41070;50.360;18.742;2023-08-12T03:29:47;8.60;;;5.20;;
55190;SDS011;41070;50.360;18.742;2023-08-12T03:32:14;6.40;;;4.80;;
55190;SDS011;41070;50.360;18.742;2023-08-12T03:35:09;6.70;;;5.10;;
55190;SDS011;41070;50.360;18.742;2023-08-12T03:37:35;7.50;;;4.60;;
55190;SDS011;41070;50.360;18.742;2023-08-12T03:40:03;7.80;;;4.80;;
55190;SDS011;41070;50.360;18.742;2023-08-12T03:42:41;7.30;;;4.30;;
55190;SDS011;41070;50.360;18.742;2023-08-12T03:45:08;8.40;;;5.60;;
55190;SDS011;41070;50.360;18.742;2023-08-12T03:47:42;7.10;;;4.70;;
55190;SDS011;41070;50.360;18.742;2023-08-12T03:50:11;7.50;;;4.80;;
55190;SDS011;41070;50.360;18.742;2023-08-12T03:52:38;6.70;;;5.00;;
55190;SDS011;41070;50.360;18.742;2023-08-12T03:55:05;7.20;;;4.90;;
55190;SDS011;41070;50.360;18.742;2023-08-12T03:57:55;5.70;;;4.70;;
55190;SDS011;41070;50.360;18.742;2023-08-12T04:00:22;8.30;;;4.90;;
55190;SDS011;41070;50.360;18.742;2023-08-12T04:02:50;6.60;;;4.40;;
55190;SDS011;41070;50.360;18.742;2023-08-12T04:05:19;5.30;;;4.10;;
55190;SDS011;41070;50.360;18.742;2023-08-12T04:07:47;6.80;;;4.30;;
55190;SDS011;41070;50.360;18.742;2023-08-12T04:10:15;6.20;;;4.70;;
55190;SDS011;41070;50.360;18.742;2023-08-12T04:12:42;6.80;;;4.70;;
55190;SDS011;41070;50.360;18.742;2023-08-12T04:15:24;7.90;;;5.50;;
55190;SDS011;41070;50.360;18.742;2023-08-12T04:17:51;5.90;;;5.00;;
55190;SDS011;41070;50.360;18.742;2023-08-12T04:20:20;6.90;;;4.80;;
55190;SDS011;41070;50.360;18.742;2023-08-12T04:22:48;6.30;;;4.50;;
55190;SDS011;41070;50.360;18.742;2023-08-12T04:25:20;7.50;;;4.90;;
55190;SDS011;41070;50.360;18.742;2023-08-12T04:28:29;5.30;;;4.60;;
55190;SDS011;41070;50.360;18.742;2023-08-12T04:30:59;11.80;;;5.60;;
55190;SDS011;41070;50.360;18.742;2023-08-12T04:33:26;11.10;;;6.80;;
55190;SDS011;41070;50.360;18.742;2023-08-12T04:36:01;9.00;;;5.80;;
55190;SDS011;41070;50.360;18.742;2023-08-12T04:38:50;7.30;;;5.90;;
55190;SDS011;41070;50.360;18.742;2023-08-12T04:43:45;7.50;;;5.90;;
55190;SDS011;41070;50.360;18.742;2023-08-12T04:46:12;11.00;;;6.70;;
55190;SDS011;41070;50.360;18.742;2023-08-12T04:49:19;11.60;;;7.00;;
55190;SDS011;41070;50.360;18.742;2023-08-12T04:51:57;11.80;;;7.30;;
55190;SDS011;41070;50.360;18.742;2023-08-12T04:54:46;11.50;;;6.80;;
55190;SDS011;41070;50.360;18.742;2023-08-12T04:57:48;10.00;;;5.80;;
55190;SDS011;41070;50.360;18.742;2023-08-12T05:00:56;9.10;;;7.00;;
55190;SDS011;41070;50.360;18.742;2023-08-12T05:03:43;11.90;;;7.90;;
55190;SDS011;41070;50.360;18.742;2023-08-12T05:06:10;10.40;;;8.50;;
55190;SDS011;41070;50.360;18.742;2023-08-12T05:08:37;14.40;;;9.50;;
55190;SDS011;41070;50.360;18.742;2023-08-12T05:11:28;11.10;;;8.40;;
55190;SDS011;41070;50.360;18.742;2023-08-12T05:13:56;14.80;;;10.30;;
55190;SDS011;41070;50.360;18.742;2023-08-12T05:16:33;11.20;;;9.60;;
55190;SDS011;41070;50.360;18.742;2023-08-12T05:19:02;12.90;;;9.80;;
55190;SDS011;41070;50.360;18.742;2023-08-12T05:21:32;14.50;;;11.10;;
55190;SDS011;41070;50.360;18.742;2023-08-12T05:24:01;14.70;;;10.90;;
55190;SDS011;41070;50.360;18.742;2023-08-12T05:26:33;17.30;;;11.40;;
55190;SDS011;41070;50.360;18.742;2023-08-12T05:29:02;14.90;;;11.10;;
55190;SDS011;41070;50.360;18.742;2023-08-12T05:31:29;14.80;;;10.80;;
55190;SDS011;41070;50.360;18.742;2023-08-12T05:34:02;14.60;;;11.10;;
55190;SDS011;41070;50.360;18.742;2023-08-12T05:36:30;17.00;;;11.00;;
55190;SDS011;41070;50.360;18.742;2023-08-12T05:38:58;12.90;;;10.30;;
55190;SDS011;41070;50.360;18.742;2023-08-12T05:41:25;14.10;;;10.40;;
55190;SDS011;41070;50.360;18.742;2023-08-12T05:43:52;14.90;;;10.50;;
55190;SDS011;41070;50.360;18.742;2023-08-12T05:46:23;15.00;;;10.60;;
55190;SDS011;41070;50.360;18.742;2023-08-12T05:48:50;13.70;;;10.70;;
55190;SDS011;41070;50.360;18.742;2023-08-12T05:51:39;13.80;;;10.10;;
55190;SDS011;41070;50.360;18.742;2023-08-12T05:54:35;16.70;;;11.20;;
55190;SDS011;41070;50.360;18.742;2023-08-12T05:57:09;14.60;;;10.20;;
55190;SDS011;41070;50.360;18.742;2023-08-12T06:00:30;14.40;;;10.90;;
55190;SDS011;41070;50.360;18.742;2023-08-12T06:02:57;12.00;;;10.80;;
55190;SDS011;41070;50.360;18.742;2023-08-12T06:05:24;15.10;;;11.30;;
55190;SDS011;41070;50.360;18.742;2023-08-12T06:07:54;14.70;;;11.10;;
55190;SDS011;41070;50.360;18.742;2023-08-12T06:10:28;15.30;;;10.80;;
55190;SDS011;41070;50.360;18.742;2023-08-12T06:28:53;14.60;;;9.80;;
55190;SDS011;41070;50.360;18.742;2023-08-12T06:32:17;11.10;;;9.70;;
55190;SDS011;41070;50.360;18.742;2023-08-12T06:35:01;11.70;;;9.60;;
55190;SDS011;41070;50.360;18.742;2023-08-12T06:37:44;12.50;;;9.20;;
55190;SDS011;41070;50.360;18.742;2023-08-12T06:42:38;12.50;;;8.50;;
55190;SDS011;41070;50.360;18.742;2023-08-12T06:56:54;10.90;;;7.90;;
55190;SDS011;41070;50.360;18.742;2023-08-12T06:59:40;9.50;;;6.90;;
55190;SDS011;41070;50.360;18.742;2023-08-12T07:02:08;9.20;;;6.60;;
55190;SDS011;41070;50.360;18.742;2023-08-12T07:04:37;11.60;;;7.50;;
55190;SDS011;41070;50.360;18.742;2023-08-12T07:07:12;9.20;;;6.20;;
55190;SDS011;41070;50.360;18.742;2023-08-12T07:09:44;8.40;;;6.30;;
55190;SDS011;41070;50.360;18.742;2023-08-12T07:13:13;10.60;;;6.10;;
55190;SDS011;41070;50.360;18.742;2023-08-12T07:18:57;7.20;;;5.40;;
55190;SDS011;41070;50.360;18.742;2023-08-12T07:22:01;7.80;;;5.60;;
55190;SDS011;41070;50.360;18.742;2023-08-12T07:24:31;6.80;;;5.50;;
55190;SDS011;41070;50.360;18.742;2023-08-12T07:27:04;7.20;;;5.30;;
55190;SDS011;41070;50.360;18.742;2023-08-12T07:29:36;13.10;;;5.80;;
55190;SDS011;41070;50.360;18.742;2023-08-12T07:32:03;9.10;;;5.60;;
55190;SDS011;41070;50.360;18.742;2023-08-12T07:34:32;25.60;;;19.60;;
55190;SDS011;41070;50.360;18.742;2023-08-12T07:36:59;8.90;;;7.50;;
55190;SDS011;41070;50.360;18.742;2023-08-12T07:39:38;6.00;;;5.40;;
55190;SDS011;41070;50.360;18.742;2023-08-12T07:42:22;8.00;;;5.50;;
55190;SDS011;41070;50.360;18.742;2023-08-12T07:45:04;8.10;;;5.60;;
55190;SDS011;41070;50.360;18.742;2023-08-12T07:47:36;6.50;;;4.70;;
55190;SDS011;41070;50.360;18.742;2023-08-12T07:50:04;7.20;;;4.70;;
55190;SDS011;41070;50.360;18.742;2023-08-12T07:52:32;6.20;;;5.00;;
55190;SDS011;41070;50.360;18.742;2023-08-12T07:55:07;7.20;;;4.10;;
55190;SDS011;41070;50.360;18.742;2023-08-12T08:00:07;6.20;;;3.70;;
55190;SDS011;41070;50.360;18.742;2023-08-12T08:02:35;5.20;;;3.60;;
55190;SDS011;41070;50.360;18.742;2023-08-12T08:05:01;4.90;;;3.50;;
55190;SDS011;41070;50.360;18.742;2023-08-12T08:07:29;3.70;;;3.10;;
55190;SDS011;41070;50.360;18.742;2023-08-12T08:09:57;4.40;;;3.20;;
55190;SDS011;41070;50.360;18.742;2023-08-12T08:12:25;3.80;;;3.30;;
55190;SDS011;41070;50.360;18.742;2023-08-12T08:14:56;6.10;;;3.30;;
55190;SDS011;41070;50.360;18.742;2023-08-12T08:17:25;5.50;;;3.50;;
55190;SDS011;41070;50.360;18.742;2023-08-12T08:19:54;5.10;;;3.10;;
55190;SDS011;41070;50.360;18.742;2023-08-12T08:22:21;6.00;;;3.20;;
55190;SDS011;41070;50.360;18.742;2023-08-12T08:24:48;3.40;;;2.90;;
55190;SDS011;41070;50.360;18.742;2023-08-12T08:27:15;4.30;;;3.10;;
55190;SDS011;41070;50.360;18.742;2023-08-12T08:30:21;6.00;;;3.70;;
55190;SDS011;41070;50.360;18.742;2023-08-12T08:32:48;5.90;;;3.90;;
55190;SDS011;41070;50.360;18.742;2023-08-12T08:35:18;4.20;;;3.70;;
55190;SDS011;41070;50.360;18.742;2023-08-12T08:37:48;4.80;;;3.80;;
55190;SDS011;41070;50.360;18.742;2023-08-12T08:40:15;4.30;;;3.30;;
55190;SDS011;41070;50.360;18.742;2023-08-12T08:45:50;6.00;;;3.30;;
55190;SDS011;41070;50.360;18.742;2023-08-12T08:48:22;7.20;;;4.20;;
55190;SDS011;41070;50.360;18.742;2023-08-12T08:50:49;9.30;;;3.50;;
55190;SDS011;41070;50.360;18.742;2023-08-12T08:53:20;5.50;;;3.80;;
55190;SDS011;41070;50.360;18.742;2023-08-12T08:55:47;5.10;;;3.70;;
55190;SDS011;41070;50.360;18.742;2023-08-12T08:58:14;5.30;;;3.70;;
55190;SDS011;41070;50.360;18.742;2023-08-12T09:00:40;6.20;;;3.90;;
55190;SDS011;41070;50.360;18.742;2023-08-12T09:03:16;10.10;;;4.10;;
55190;SDS011;41070;50.360;18.742;2023-08-12T09:05:43;5.10;;;3.70;;
55190;SDS011;41070;50.360;18.742;2023-08-12T09:08:10;7.20;;;4.20;;
55190;SDS011;41070;50.360;18.742;2023-08-12T09:10:40;4.40;;;4.00;;
55190;SDS011;41070;50.360;18.742;2023-08-12T09:20:43;4.30;;;3.80;;
55190;SDS011;41070;50.360;18.742;2023-08-12T09:33:38;4.50;;;2.90;;
55190;SDS011;41070;50.360;18.742;2023-08-12T09:36:36;11.10;;;3.10;;
55190;SDS011;41070;50.360;18.742;2023-08-12T09:39:57;6.80;;;3.40;;
55190;SDS011;41070;50.360;18.742;2023-08-12T09:42:56;5.80;;;2.80;;
55190;SDS011;41070;50.360;18.742;2023-08-12T09:45:23;5.90;;;2.90;;
55190;SDS011;41070;50.360;18.742;2023-08-12T09:47:56;7.10;;;3.00;;
55190;SDS011;41070;50.360;18.742;2023-08-12T09:50:23;3.50;;;2.70;;
55190;SDS011;41070;50.360;18.742;2023-08-12T09:52:51;2.90;;;2.60;;
55190;SDS011;41070;50.360;18.742;2023-08-12T09:55:19;4.30;;;3.10;;
55190;SDS011;41070;50.360;18.742;2023-08-12T09:57:48;5.50;;;2.70;;
55190;SDS011;41070;50.360;18.742;2023-08-12T10:00:16;3.70;;;2.60;;
55190;SDS011;41070;50.360;18.742;2023-08-12T10:02:45;4.10;;;2.50;;
55190;SDS011;41070;50.360;18.742;2023-08-12T10:05:16;5.20;;;2.60;;
55190;SDS011;41070;50.360;18.742;2023-08-12T10:07:47;3.40;;;2.30;;
55190;SDS011;41070;50.360;18.742;2023-08-12T10:10:15;4.10;;;2.20;;
55190;SDS011;41070;50.360;18.742;2023-08-12T10:12:52;3.80;;;2.60;;
55190;SDS011;41070;50.360;18.742;2023-08-12T10:15:18;3.80;;;2.10;;
55190;SDS011;41070;50.360;18.742;2023-08-12T10:17:46;2.80;;;2.50;;
55190;SDS011;41070;50.360;18.742;2023-08-12T10:20:20;3.00;;;2.70;;
55190;SDS011;41070;50.360;18.742;2023-08-12T10:23:15;3.40;;;2.10;;
55190;SDS011;41070;50.360;18.742;2023-08-12T10:25:47;3.10;;;2.00;;
55190;SDS011;41070;50.360;18.742;2023-08-12T10:30:50;2.30;;;1.80;;
55190;SDS011;41070;50.360;18.742;2023-08-12T10:33:21;2.70;;;2.00;;
55190;SDS011;41070;50.360;18.742;2023-08-12T10:36:26;5.30;;;2.30;;
55190;SDS011;41070;50.360;18.742;2023-08-12T10:38:58;3.00;;;2.00;;
55190;SDS011;41070;50.360;18.742;2023-08-12T10:41:27;2.30;;;1.90;;
55190;SDS011;41070;50.360;18.742;2023-08-12T10:43:58;3.50;;;2.50;;
55190;SDS011;41070;50.360;18.742;2023-08-12T10:46:36;5.60;;;1.70;;
55190;SDS011;41070;50.360;18.742;2023-08-12T10:49:04;3.20;;;1.60;;
55190;SDS011;41070;50.360;18.742;2023-08-12T11:02:36;2.90;;;1.80;;
55190;SDS011;41070;50.360;18.742;2023-08-12T11:05:09;1.90;;;1.70;;
55190;SDS011;41070;50.360;18.742;2023-08-12T11:07:40;1.60;;;1.50;;
55190;SDS011;41070;50.360;18.742;2023-08-12T11:10:24;2.70;;;1.90;;
55190;SDS011;41070;50.360;18.742;2023-08-12T11:15:29;2.30;;;2.10;;
55190;SDS011;41070;50.360;18.742;2023-08-12T11:18:10;3.40;;;2.10;;
55190;SDS011;41070;50.360;18.742;2023-08-12T11:20:46;2.30;;;1.50;;
55190;SDS011;41070;50.360;18.742;2023-08-12T11:23:17;2.20;;;2.00;;
55190;SDS011;41070;50.360;18.742;2023-08-12T11:25:46;3.70;;;1.90;;
55190;SDS011;41070;50.360;18.742;2023-08-12T11:28:17;2.20;;;2.00;;
55190;SDS011;41070;50.360;18.742;2023-08-12T11:30:52;2.30;;;1.70;;
55190;SDS011;41070;50.360;18.742;2023-08-12T11:33:22;2.80;;;2.10;;
55190;SDS011;41070;50.360;18.742;2023-08-12T11:35:50;3.00;;;2.00;;
55190;SDS011;41070;50.360;18.742;2023-08-12T11:38:29;3.60;;;2.00;;
55190;SDS011;41070;50.360;18.742;2023-08-12T11:41:24;3.30;;;2.10;;
55190;SDS011;41070;50.360;18.742;2023-08-12T11:43:53;3.40;;;2.10;;
55190;SDS011;41070;50.360;18.742;2023-08-12T11:46:20;3.30;;;2.40;;
55190;SDS011;41070;50.360;18.742;2023-08-12T11:48:46;2.50;;;1.90;;
55190;SDS011;41070;50.360;18.742;2023-08-12T11:51:13;3.40;;;2.10;;
55190;SDS011;41070;50.360;18.742;2023-08-12T11:53:39;2.90;;;2.00;;
55190;SDS011;41070;50.360;18.742;2023-08-12T11:56:07;3.00;;;2.00;;
55190;SDS011;41070;50.360;18.742;2023-08-12T11:58:37;2.80;;;2.20;;
55190;SDS011;41070;50.360;18.742;2023-08-12T12:01:04;2.40;;;2.20;;
55190;SDS011;41070;50.360;18.742;2023-08-12T12:03:30;2.40;;;2.20;;
55190;SDS011;41070;50.360;18.742;2023-08-12T12:05:57;5.60;;;2.20;;
55190;SDS011;41070;50.360;18.742;2023-08-12T12:08:24;2.50;;;2.20;;
55190;SDS011;41070;50.360;18.742;2023-08-12T12:10:51;3.10;;;2.10;;
55190;SDS011;41070;50.360;18.742;2023-08-12T12:13:20;4.50;;;2.10;;
55190;SDS011;41070;50.360;18.742;2023-08-12T12:15:49;3.60;;;2.50;;
55190;SDS011;41070;50.360;18.742;2023-08-12T12:18:18;2.00;;;1.80;;
55190;SDS011;41070;50.360;18.742;2023-08-12T12:20:57;2.00;;;1.80;;
55190;SDS011;41070;50.360;18.742;2023-08-12T12:23:33;2.40;;;1.90;;
55190;SDS011;41070;50.360;18.742;2023-08-12T12:26:13;1.80;;;1.50;;
55190;SDS011;41070;50.360;18.742;2023-08-12T12:28:54;1.90;;;1.70;;
55190;SDS011;41070;50.360;18.742;2023-08-12T12:31:23;3.00;;;1.70;;
55190;SDS011;41070;50.360;18.742;2023-08-12T12:33:50;2.70;;;1.60;;
55190;SDS011;41070;50.360;18.742;2023-08-12T12:36:16;2.50;;;2.00;;
55190;SDS011;41070;50.360;18.742;2023-08-12T12:38:43;3.70;;;2.20;;
55190;SDS011;41070;50.360;18.742;2023-08-12T12:41:09;2.70;;;2.20;;
55190;SDS011;41070;50.360;18.742;2023-08-12T12:43:38;3.60;;;2.40;;
55190;SDS011;41070;50.360;18.742;2023-08-12T12:46:10;2.80;;;2.10;;
55190;SDS011;41070;50.360;18.742;2023-08-12T12:48:42;3.10;;;2.10;;
55190;SDS011;41070;50.360;18.742;2023-08-12T12:51:13;4.20;;;2.20;;
55190;SDS011;41070;50.360;18.742;2023-08-12T12:53:40;2.30;;;2.10;;
55190;SDS011;41070;50.360;18.742;2023-08-12T12:56:07;2.20;;;1.90;;
55190;SDS011;41070;50.360;18.742;2023-08-12T12:58:34;3.10;;;2.00;;
55190;SDS011;41070;50.360;18.742;2023-08-12T13:01:01;2.20;;;1.80;;
55190;SDS011;41070;50.360;18.742;2023-08-12T13:03:32;2.50;;;2.00;;
55190;SDS011;41070;50.360;18.742;2023-08-12T13:10:22;2.60;;;1.40;;
55190;SDS011;41070;50.360;18.742;2023-08-12T13:16:58;2.10;;;1.90;;
55190;SDS011;41070;50.360;18.742;2023-08-12T13:19:39;1.70;;;1.60;;
55190;SDS011;41070;50.360;18.742;2023-08-12T13:22:07;2.90;;;1.70;;
55190;SDS011;41070;50.360;18.742;2023-08-12T13:24:34;2.60;;;1.40;;
55190;SDS011;41070;50.360;18.742;2023-08-12T13:27:15;1.60;;;1.50;;
55190;SDS011;41070;50.360;18.742;2023-08-12T13:29:42;3.10;;;1.50;;
55190;SDS011;41070;50.360;18.742;2023-08-12T13:32:10;1.50;;;1.40;;
55190;SDS011;41070;50.360;18.742;2023-08-12T13:34:37;1.40;;;1.30;;
55190;SDS011;41070;50.360;18.742;2023-08-12T13:37:04;2.40;;;1.50;;
55190;SDS011;41070;50.360;18.742;2023-08-12T13:39:35;1.50;;;1.40;;
55190;SDS011;41070;50.360;18.742;2023-08-12T13:42:07;2.20;;;1.40;;
55190;SDS011;41070;50.360;18.742;2023-08-12T13:44:36;1.80;;;1.30;;
55190;SDS011;41070;50.360;18.742;2023-08-12T13:47:03;1.60;;;1.50;;
55190;SDS011;41070;50.360;18.742;2023-08-12T13:49:29;2.50;;;1.40;;
55190;SDS011;41070;50.360;18.742;2023-08-12T13:51:55;1.80;;;1.60;;
55190;SDS011;41070;50.360;18.742;2023-08-12T13:54:25;3.00;;;1.60;;
55190;SDS011;41070;50.360;18.742;2023-08-12T13:56:51;2.90;;;1.90;;
55190;SDS011;41070;50.360;18.742;2023-08-12T13:59:17;1.50;;;1.40;;
55190;SDS011;41070;50.360;18.742;2023-08-12T14:01:45;3.40;;;1.40;;
55190;SDS011;41070;50.360;18.742;2023-08-12T14:04:11;1.70;;;1.50;;
55190;SDS011;41070;50.360;18.742;2023-08-12T14:06:37;2.30;;;1.40;;
55190;SDS011;41070;50.360;18.742;2023-08-12T14:09:05;1.60;;;1.30;;
55190;SDS011;41070;50.360;18.742;2023-08-12T14:11:33;4.00;;;1.40;;
55190;SDS011;41070;50.360;18.742;2023-08-12T14:14:00;1.50;;;1.40;;
55190;SDS011;41070;50.360;18.742;2023-08-12T14:16:30;2.40;;;1.30;;
55190;SDS011;41070;50.360;18.742;2023-08-12T14:18:57;1.70;;;1.60;;
55190;SDS011;41070;50.360;18.742;2023-08-12T14:21:25;1.70;;;1.50;;
55190;SDS011;41070;50.360;18.742;2023-08-12T14:23:52;2.00;;;1.30;;
55190;SDS011;41070;50.360;18.742;2023-08-12T14:26:18;1.80;;;1.30;;
55190;SDS011;41070;50.360;18.742;2023-08-12T14:28:48;1.40;;;1.30;;
55190;SDS011;41070;50.360;18.742;2023-08-12T14:31:16;1.80;;;1.60;;
55190;SDS011;41070;50.360;18.742;2023-08-12T14:33:44;3.00;;;2.20;;
55190;SDS011;41070;50.360;18.742;2023-08-12T14:36:10;4.80;;;2.20;;
55190;SDS011;41070;50.360;18.742;2023-08-12T14:38:37;3.10;;;1.70;;
55190;SDS011;41070;50.360;18.742;2023-08-12T14:41:04;1.50;;;1.40;;
55190;SDS011;41070;50.360;18.742;2023-08-12T14:43:32;1.90;;;1.40;;
55190;SDS011;41070;50.360;18.742;2023-08-12T14:45:59;2.60;;;1.70;;
55190;SDS011;41070;50.360;18.742;2023-08-12T14:48:33;2.80;;;1.40;;
55190;SDS011;41070;50.360;18.742;2023-08-12T14:51:03;3.20;;;2.00;;
55190;SDS011;41070;50.360;18.742;2023-08-12T14:53:29;2.40;;;1.40;;
55190;SDS011;41070;50.360;18.742;2023-08-12T14:56:19;1.80;;;1.40;;
55190;SDS011;41070;50.360;18.742;2023-08-12T14:58:46;2.00;;;1.40;;
55190;SDS011;41070;50.360;18.742;2023-08-12T15:01:15;5.20;;;1.90;;
55190;SDS011;41070;50.360;18.742;2023-08-12T15:03:42;2.80;;;1.90;;
55190;SDS011;41070;50.360;18.742;2023-08-12T15:06:11;3.70;;;1.80;;
55190;SDS011;41070;50.360;18.742;2023-08-12T15:08:40;3.80;;;1.70;;
55190;SDS011;41070;50.360;18.742;2023-08-12T15:11:07;4.70;;;1.80;;
55190;SDS011;41070;50.360;18.742;2023-08-12T15:13:34;2.30;;;1.90;;
55190;SDS011;41070;50.360;18.742;2023-08-12T15:16:01;3.80;;;2.20;;
55190;SDS011;41070;50.360;18.742;2023-08-12T15:18:32;2.20;;;2.00;;
55190;SDS011;41070;50.360;18.742;2023-08-12T15:21:02;2.40;;;1.80;;
55190;SDS011;41070;50.360;18.742;2023-08-12T15:23:29;1.70;;;1.60;;
55190;SDS011;41070;50.360;18.742;2023-08-12T15:26:01;1.80;;;1.20;;
55190;SDS011;41070;50.360;18.742;2023-08-12T15:28:31;1.90;;;1.30;;
55190;SDS011;41070;50.360;18.742;2023-08-12T15:30:59;2.50;;;1.20;;
55190;SDS011;41070;50.360;18.742;2023-08-12T15:33:26;1.90;;;1.20;;
55190;SDS011;41070;50.360;18.742;2023-08-12T15:35:54;1.50;;;1.40;;
55190;SDS011;41070;50.360;18.742;2023-08-12T15:38:22;3.20;;;1.80;;
55190;SDS011;41070;50.360;18.742;2023-08-12T15:40:49;2.50;;;1.70;;
55190;SDS011;41070;50.360;18.742;2023-08-12T15:43:17;2.20;;;1.60;;
55190;SDS011;41070;50.360;18.742;2023-08-12T15:45:55;6.90;;;2.20;;
55190;SDS011;41070;50.360;18.742;2023-08-12T15:51:27;2.10;;;1.40;;
55190;SDS011;41070;50.360;18.742;2023-08-12T15:57:59;3.40;;;1.90;;
55190;SDS011;41070;50.360;18.742;2023-08-12T16:00:50;2.20;;;1.80;;
55190;SDS011;41070;50.360;18.742;2023-08-12T16:03:23;2.00;;;1.70;;
55190;SDS011;41070;50.360;18.742;2023-08-12T16:05:56;7.10;;;2.00;;
55190;SDS011;41070;50.360;18.742;2023-08-12T16:08:26;2.10;;;1.70;;
55190;SDS011;41070;50.360;18.742;2023-08-12T16:10:55;3.60;;;1.50;;
55190;SDS011;41070;50.360;18.742;2023-08-12T16:13:27;2.40;;;1.80;;
55190;SDS011;41070;50.360;18.742;2023-08-12T16:15:54;2.30;;;1.50;;
55190;SDS011;41070;50.360;18.742;2023-08-12T16:18:25;1.70;;;1.60;;
55190;SDS011;41070;50.360;18.742;2023-08-12T16:20:52;1.50;;;1.40;;
55190;SDS011;41070;50.360;18.742;2023-08-12T16:23:19;2.90;;;1.70;;
55190;SDS011;41070;50.360;18.742;2023-08-12T16:25:46;4.20;;;1.70;;
55190;SDS011;41070;50.360;18.742;2023-08-12T16:28:13;2.40;;;1.60;;
55190;SDS011;41070;50.360;18.742;2023-08-12T16:30:40;2.60;;;1.40;;
55190;SDS011;41070;50.360;18.742;2023-08-12T16:33:07;2.00;;;1.50;;
55190;SDS011;41070;50.360;18.742;2023-08-12T16:35:33;1.80;;;1.60;;
55190;SDS011;41070;50.360;18.742;2023-08-12T16:38:00;2.80;;;1.60;;
55190;SDS011;41070;50.360;18.742;2023-08-12T16:40:28;3.00;;;1.50;;
55190;SDS011;41070;50.360;18.742;2023-08-12T16:43:01;2.40;;;1.70;;
55190;SDS011;41070;50.360;18.742;2023-08-12T16:45:30;3.80;;;1.50;;
55190;SDS011;41070;50.360;18.742;2023-08-12T16:47:56;2.90;;;1.70;;
55190;SDS011;41070;50.360;18.742;2023-08-12T16:50:25;3.00;;;1.80;;